sensor_id;sensor_type;location;lat;lon;timestamp;P1;durP1;ratioP1;P2;durP2;ratioP2
19929;SDS011;10127;47.780;9.606;2023-04-16T00:01:31;4.68;;;3.25;;
19929;SDS011;10127;47.780;9.606;2023-04-16T00:03:57;6.13;;;3.28;;
19929;SDS011;10127;47.780;9.606;2023-04-16T00:06:23;4.28;;;2.80;;
19929;SDS011;10127;47.780;9.606;2023-04-16T00:08:48;5.50;;;3.10;;
19929;SDS011;10127;47.780;9.606;2023-04-16T00:11:15;3.10;;;2.80;;
19929;SDS011;10127;47.780;9.606;2023-04-16T00:13:41;5.13;;;3.00;;
19929;SDS011;10127;47.780;9.606;2023-04-16T00:16:07;3.80;;;2.80;;
19929;SDS011;10127;47.780;9.606;2023-04-16T00:18:32;3.33;;;2.40;;
19929;SDS011;10127;47.780;9.606;2023-04-16T00:20:58;3.50;;;2.58;;
19929;SDS011;10127;47.780;9.606;2023-04-16T00:23:24;5.35;;;2.75;;
19929;SDS011;10127;47.780;9.606;2023-04-16T00:25:49;4.07;;;2.80;;
19929;SDS011;10127;47.780;9.606;2023-04-16T00:28:15;3.70;;;3.10;;
19929;SDS011;10127;47.780;9.606;2023-04-16T00:30:41;3.57;;;3.10;;
19929;SDS011;10127;47.780;9.606;2023-04-16T00:33:06;3.23;;;2.60;;
19929;SDS011;10127;47.780;9.606;2023-04-16T00:35:32;4.45;;;2.55;;
19929;SDS011;10127;47.780;9.606;2023-04-16T00:37:58;3.27;;;2.20;;
19929;SDS011;10127;47.780;9.606;2023-04-16T00:40:26;4.25;;;2.60;;
19929;SDS011;10127;47.780;9.606;2023-04-16T00:42:52;2.57;;;2.37;;
19929;SDS011;10127;47.780;9.606;2023-04-16T00:45:18;2.00;;;1.77;;
19929;SDS011;10127;47.780;9.606;2023-04-16T00:47:44;3.77;;;1.60;;
19929;SDS011;10127;47.780;9.606;2023-04-16T00:50:10;1.20;;;1.10;;
19929;SDS011;10127;47.780;9.606;2023-04-16T00:52:36;2.47;;;1.27;;
19929;SDS011;10127;47.780;9.606;2023-04-16T00:55:09;1.83;;;1.20;;
19929;SDS011;10127;47.780;9.606;2023-04-16T00:57:37;2.97;;;1.17;;
19929;SDS011;10127;47.780;9.606;2023-04-16T01:00:03;2.27;;;1.37;;
19929;SDS011;10127;47.780;9.606;2023-04-16T01:02:30;1.50;;;1.40;;
19929;SDS011;10127;47.780;9.606;2023-04-16T01:04:55;2.23;;;1.53;;
19929;SDS011;10127;47.780;9.606;2023-04-16T01:07:21;1.90;;;1.70;;
19929;SDS011;10127;47.780;9.606;2023-04-16T01:09:46;4.00;;;1.90;;
19929;SDS011;10127;47.780;9.606;2023-04-16T01:12:12;2.50;;;1.90;;
19929;SDS011;10127;47.780;9.606;2023-04-16T01:14:37;3.33;;;1.90;;
19929;SDS011;10127;47.780;9.606;2023-04-16T01:17:03;2.03;;;1.83;;
19929;SDS011;10127;47.780;9.606;2023-04-16T01:19:28;2.10;;;1.80;;
19929;SDS011;10127;47.780;9.606;2023-04-16T01:22:07;3.27;;;1.93;;
19929;SDS011;10127;47.780;9.606;2023-04-16T01:24:33;2.33;;;1.60;;
19929;SDS011;10127;47.780;9.606;2023-04-16T01:26:59;2.20;;;1.80;;
19929;SDS011;10127;47.780;9.606;2023-04-16T01:29:25;2.30;;;1.77;;
19929;SDS011;10127;47.780;9.606;2023-04-16T01:31:50;2.00;;;1.60;;
19929;SDS011;10127;47.780;9.606;2023-04-16T01:34:16;3.83;;;1.73;;
19929;SDS011;10127;47.780;9.606;2023-04-16T01:36:42;2.00;;;1.37;;
19929;SDS011;10127;47.780;9.606;2023-04-16T01:39:07;1.63;;;1.50;;
19929;SDS011;10127;47.780;9.606;2023-04-16T01:41:37;3.17;;;1.80;;
19929;SDS011;10127;47.780;9.606;2023-04-16T01:44:03;1.47;;;1.30;;
19929;SDS011;10127;47.780;9.606;2023-04-16T01:46:30;2.00;;;1.60;;
19929;SDS011;10127;47.780;9.606;2023-04-16T01:48:57;2.27;;;1.43;;
19929;SDS011;10127;47.780;9.606;2023-04-16T01:51:23;2.50;;;1.53;;
19929;SDS011;10127;47.780;9.606;2023-04-16T01:53:49;1.30;;;1.17;;
19929;SDS011;10127;47.780;9.606;2023-04-16T01:56:15;2.97;;;1.77;;
19929;SDS011;10127;47.780;9.606;2023-04-16T01:58:40;1.83;;;1.70;;
19929;SDS011;10127;47.780;9.606;2023-04-16T02:01:11;3.20;;;2.00;;
19929;SDS011;10127;47.780;9.606;2023-04-16T02:03:37;3.80;;;2.23;;
19929;SDS011;10127;47.780;9.606;2023-04-16T02:06:03;3.97;;;2.40;;
19929;SDS011;10127;47.780;9.606;2023-04-16T02:08:28;3.77;;;2.60;;
19929;SDS011;10127;47.780;9.606;2023-04-16T02:10:54;3.53;;;2.43;;
19929;SDS011;10127;47.780;9.606;2023-04-16T02:13:20;4.23;;;3.03;;
19929;SDS011;10127;47.780;9.606;2023-04-16T02:15:49;5.40;;;3.03;;
19929;SDS011;10127;47.780;9.606;2023-04-16T02:18:15;4.20;;;2.80;;
19929;SDS011;10127;47.780;9.606;2023-04-16T02:20:41;3.97;;;2.90;;
19929;SDS011;10127;47.780;9.606;2023-04-16T02:23:08;3.87;;;2.83;;
19929;SDS011;10127;47.780;9.606;2023-04-16T02:25:40;3.53;;;2.60;;
19929;SDS011;10127;47.780;9.606;2023-04-16T02:28:10;4.00;;;2.77;;
19929;SDS011;10127;47.780;9.606;2023-04-16T02:30:37;4.50;;;2.53;;
19929;SDS011;10127;47.780;9.606;2023-04-16T02:33:04;4.03;;;2.57;;
19929;SDS011;10127;47.780;9.606;2023-04-16T02:35:31;4.03;;;2.50;;
19929;SDS011;10127;47.780;9.606;2023-04-16T02:37:57;2.53;;;2.20;;
19929;SDS011;10127;47.780;9.606;2023-04-16T02:40:23;2.70;;;2.50;;
19929;SDS011;10127;47.780;9.606;2023-04-16T02:42:49;3.93;;;2.77;;
19929;SDS011;10127;47.780;9.606;2023-04-16T02:45:15;4.17;;;2.50;;
19929;SDS011;10127;47.780;9.606;2023-04-16T02:47:41;3.43;;;2.70;;
19929;SDS011;10127;47.780;9.606;2023-04-16T02:50:06;5.23;;;2.93;;
19929;SDS011;10127;47.780;9.606;2023-04-16T03:13:06;5.50;;;4.10;;
19929;SDS011;10127;47.780;9.606;2023-04-16T03:15:32;4.53;;;4.10;;
19929;SDS011;10127;47.780;9.606;2023-04-16T03:17:57;5.27;;;4.20;;
19929;SDS011;10127;47.780;9.606;2023-04-16T03:20:23;6.30;;;3.90;;
19929;SDS011;10127;47.780;9.606;2023-04-16T03:22:50;5.00;;;3.97;;
19929;SDS011;10127;47.780;9.606;2023-04-16T03:25:18;5.83;;;4.43;;
19929;SDS011;10127;47.780;9.606;2023-04-16T03:27:44;4.97;;;4.10;;
19929;SDS011;10127;47.780;9.606;2023-04-16T03:30:10;4.57;;;3.63;;
19929;SDS011;10127;47.780;9.606;2023-04-16T03:32:36;5.00;;;3.87;;
19929;SDS011;10127;47.780;9.606;2023-04-16T03:35:03;9.70;;;4.33;;
19929;SDS011;10127;47.780;9.606;2023-04-16T03:37:31;4.30;;;3.90;;
19929;SDS011;10127;47.780;9.606;2023-04-16T03:39:57;6.93;;;3.87;;
19929;SDS011;10127;47.780;9.606;2023-04-16T03:42:23;6.60;;;3.60;;
19929;SDS011;10127;47.780;9.606;2023-04-16T03:44:48;5.00;;;3.60;;
19929;SDS011;10127;47.780;9.606;2023-04-16T03:47:14;7.67;;;3.90;;
19929;SDS011;10127;47.780;9.606;2023-04-16T03:49:40;5.80;;;3.00;;
19929;SDS011;10127;47.780;9.606;2023-04-16T03:52:06;6.23;;;3.50;;
19929;SDS011;10127;47.780;9.606;2023-04-16T03:54:31;4.17;;;3.70;;
19929;SDS011;10127;47.780;9.606;2023-04-16T03:56:57;3.73;;;3.07;;
19929;SDS011;10127;47.780;9.606;2023-04-16T03:59:22;4.27;;;3.33;;
19929;SDS011;10127;47.780;9.606;2023-04-16T04:01:48;3.67;;;3.38;;
19929;SDS011;10127;47.780;9.606;2023-04-16T04:04:13;4.30;;;3.13;;
19929;SDS011;10127;47.780;9.606;2023-04-16T04:06:39;4.23;;;3.77;;
19929;SDS011;10127;47.780;9.606;2023-04-16T04:09:05;3.83;;;3.43;;
19929;SDS011;10127;47.780;9.606;2023-04-16T04:11:30;3.50;;;3.20;;
19929;SDS011;10127;47.780;9.606;2023-04-16T04:13:56;4.27;;;3.67;;
19929;SDS011;10127;47.780;9.606;2023-04-16T04:16:21;4.00;;;3.17;;
19929;SDS011;10127;47.780;9.606;2023-04-16T04:18:47;4.03;;;3.40;;
19929;SDS011;10127;47.780;9.606;2023-04-16T04:21:12;4.60;;;3.83;;
19929;SDS011;10127;47.780;9.606;2023-04-16T04:23:38;3.97;;;3.40;;
19929;SDS011;10127;47.780;9.606;2023-04-16T04:26:05;4.73;;;3.37;;
19929;SDS011;10127;47.780;9.606;2023-04-16T04:28:31;3.53;;;3.20;;
19929;SDS011;10127;47.780;9.606;2023-04-16T04:30:58;4.17;;;3.53;;
19929;SDS011;10127;47.780;9.606;2023-04-16T04:33:24;5.70;;;3.60;;
19929;SDS011;10127;47.780;9.606;2023-04-16T04:35:50;4.00;;;3.30;;
19929;SDS011;10127;47.780;9.606;2023-04-16T04:38:16;5.67;;;3.13;;
19929;SDS011;10127;47.780;9.606;2023-04-16T04:40:49;4.57;;;3.37;;
19929;SDS011;10127;47.780;9.606;2023-04-16T04:43:16;4.50;;;3.23;;
19929;SDS011;10127;47.780;9.606;2023-04-16T04:45:43;4.30;;;3.10;;
19929;SDS011;10127;47.780;9.606;2023-04-16T04:48:08;3.73;;;3.23;;
19929;SDS011;10127;47.780;9.606;2023-04-16T04:50:34;4.20;;;3.53;;
19929;SDS011;10127;47.780;9.606;2023-04-16T04:53:00;4.93;;;3.70;;
19929;SDS011;10127;47.780;9.606;2023-04-16T04:55:26;4.10;;;3.57;;
19929;SDS011;10127;47.780;9.606;2023-04-16T04:57:51;4.73;;;3.57;;
19929;SDS011;10127;47.780;9.606;2023-04-16T05:00:17;4.33;;;3.40;;
19929;SDS011;10127;47.780;9.606;2023-04-16T05:02:43;4.60;;;4.10;;
19929;SDS011;10127;47.780;9.606;2023-04-16T05:05:08;4.90;;;3.73;;
19929;SDS011;10127;47.780;9.606;2023-04-16T05:07:34;5.00;;;3.90;;
19929;SDS011;10127;47.780;9.606;2023-04-16T05:10:00;6.23;;;4.10;;
19929;SDS011;10127;47.780;9.606;2023-04-16T05:12:25;5.53;;;4.43;;
19929;SDS011;10127;47.780;9.606;2023-04-16T05:14:51;5.40;;;4.43;;
19929;SDS011;10127;47.780;9.606;2023-04-16T05:17:16;6.13;;;4.57;;
19929;SDS011;10127;47.780;9.606;2023-04-16T05:19:42;5.47;;;4.20;;
19929;SDS011;10127;47.780;9.606;2023-04-16T05:22:07;5.63;;;4.50;;
19929;SDS011;10127;47.780;9.606;2023-04-16T05:24:33;4.43;;;4.00;;
19929;SDS011;10127;47.780;9.606;2023-04-16T05:26:58;5.00;;;4.37;;
19929;SDS011;10127;47.780;9.606;2023-04-16T05:29:25;5.60;;;4.30;;
19929;SDS011;10127;47.780;9.606;2023-04-16T05:31:51;7.00;;;4.50;;
19929;SDS011;10127;47.780;9.606;2023-04-16T05:34:17;6.67;;;4.53;;
19929;SDS011;10127;47.780;9.606;2023-04-16T05:36:42;5.03;;;4.00;;
19929;SDS011;10127;47.780;9.606;2023-04-16T05:39:08;5.70;;;4.30;;
19929;SDS011;10127;47.780;9.606;2023-04-16T05:41:34;6.20;;;4.10;;
19929;SDS011;10127;47.780;9.606;2023-04-16T05:44:00;6.57;;;4.60;;
19929;SDS011;10127;47.780;9.606;2023-04-16T05:46:25;5.20;;;3.83;;
19929;SDS011;10127;47.780;9.606;2023-04-16T05:48:51;6.13;;;4.20;;
19929;SDS011;10127;47.780;9.606;2023-04-16T05:51:16;4.93;;;4.03;;
19929;SDS011;10127;47.780;9.606;2023-04-16T05:53:42;6.20;;;3.80;;
19929;SDS011;10127;47.780;9.606;2023-04-16T05:56:07;6.90;;;4.47;;
19929;SDS011;10127;47.780;9.606;2023-04-16T05:58:33;7.30;;;4.60;;
19929;SDS011;10127;47.780;9.606;2023-04-16T06:00:59;5.63;;;3.97;;
19929;SDS011;10127;47.780;9.606;2023-04-16T06:03:25;5.63;;;4.30;;
19929;SDS011;10127;47.780;9.606;2023-04-16T06:05:51;5.30;;;3.83;;
19929;SDS011;10127;47.780;9.606;2023-04-16T06:08:16;8.30;;;4.23;;
19929;SDS011;10127;47.780;9.606;2023-04-16T06:10:44;4.87;;;4.07;;
19929;SDS011;10127;47.780;9.606;2023-04-16T06:13:11;5.23;;;3.90;;
19929;SDS011;10127;47.780;9.606;2023-04-16T06:15:36;7.00;;;4.50;;
19929;SDS011;10127;47.780;9.606;2023-04-16T06:18:02;4.53;;;3.87;;
19929;SDS011;10127;47.780;9.606;2023-04-16T06:20:28;5.37;;;4.13;;
19929;SDS011;10127;47.780;9.606;2023-04-16T06:22:54;5.97;;;4.50;;
19929;SDS011;10127;47.780;9.606;2023-04-16T06:25:20;5.37;;;4.07;;
19929;SDS011;10127;47.780;9.606;2023-04-16T06:27:45;5.33;;;4.10;;
19929;SDS011;10127;47.780;9.606;2023-04-16T06:30:11;4.67;;;2.93;;
19929;SDS011;10127;47.780;9.606;2023-04-16T06:32:38;3.37;;;2.40;;
19929;SDS011;10127;47.780;9.606;2023-04-16T06:35:03;5.10;;;2.50;;
19929;SDS011;10127;47.780;9.606;2023-04-16T06:37:29;2.33;;;2.10;;
19929;SDS011;10127;47.780;9.606;2023-04-16T06:39:55;2.03;;;1.50;;
19929;SDS011;10127;47.780;9.606;2023-04-16T06:42:20;2.75;;;1.63;;
19929;SDS011;10127;47.780;9.606;2023-04-16T06:44:46;1.40;;;1.30;;
19929;SDS011;10127;47.780;9.606;2023-04-16T06:47:12;1.90;;;1.40;;
19929;SDS011;10127;47.780;9.606;2023-04-16T06:49:37;1.57;;;1.43;;
19929;SDS011;10127;47.780;9.606;2023-04-16T06:52:03;1.47;;;1.37;;
19929;SDS011;10127;47.780;9.606;2023-04-16T06:54:29;2.40;;;1.50;;
19929;SDS011;10127;47.780;9.606;2023-04-16T06:56:55;1.80;;;1.30;;
19929;SDS011;10127;47.780;9.606;2023-04-16T06:59:21;1.00;;;0.90;;
19929;SDS011;10127;47.780;9.606;2023-04-16T07:01:46;1.07;;;0.90;;
19929;SDS011;10127;47.780;9.606;2023-04-16T07:04:12;1.37;;;1.27;;
19929;SDS011;10127;47.780;9.606;2023-04-16T07:06:37;1.20;;;1.10;;
19929;SDS011;10127;47.780;9.606;2023-04-16T07:09:03;2.87;;;1.00;;
19929;SDS011;10127;47.780;9.606;2023-04-16T07:11:28;1.27;;;1.17;;
19929;SDS011;10127;47.780;9.606;2023-04-16T07:13:54;1.50;;;1.10;;
19929;SDS011;10127;47.780;9.606;2023-04-16T07:16:21;2.47;;;0.93;;
19929;SDS011;10127;47.780;9.606;2023-04-16T07:18:47;1.27;;;1.00;;
19929;SDS011;10127;47.780;9.606;2023-04-16T07:21:12;2.00;;;1.13;;
19929;SDS011;10127;47.780;9.606;2023-04-16T07:23:38;1.53;;;1.10;;
19929;SDS011;10127;47.780;9.606;2023-04-16T07:26:04;1.07;;;0.97;;
19929;SDS011;10127;47.780;9.606;2023-04-16T07:28:29;2.87;;;1.53;;
19929;SDS011;10127;47.780;9.606;2023-04-16T07:30:55;2.50;;;1.27;;
19929;SDS011;10127;47.780;9.606;2023-04-16T07:33:20;1.20;;;1.10;;
19929;SDS011;10127;47.780;9.606;2023-04-16T07:35:46;1.47;;;1.20;;
19929;SDS011;10127;47.780;9.606;2023-04-16T07:38:12;1.57;;;1.30;;
19929;SDS011;10127;47.780;9.606;2023-04-16T07:40:37;2.50;;;1.10;;
19929;SDS011;10127;47.780;9.606;2023-04-16T07:43:03;1.80;;;1.30;;
19929;SDS011;10127;47.780;9.606;2023-04-16T07:45:28;3.53;;;1.30;;
19929;SDS011;10127;47.780;9.606;2023-04-16T07:47:54;1.20;;;1.10;;
19929;SDS011;10127;47.780;9.606;2023-04-16T07:50:20;1.13;;;0.93;;
19929;SDS011;10127;47.780;9.606;2023-04-16T07:52:46;1.90;;;1.60;;
19929;SDS011;10127;47.780;9.606;2023-04-16T07:55:11;5.73;;;2.53;;
19929;SDS011;10127;47.780;9.606;2023-04-16T07:57:37;0.77;;;0.77;;
19929;SDS011;10127;47.780;9.606;2023-04-16T08:00:03;0.80;;;0.80;;
19929;SDS011;10127;47.780;9.606;2023-04-16T08:02:29;1.20;;;1.10;;
19929;SDS011;10127;47.780;9.606;2023-04-16T08:04:55;1.83;;;1.03;;
19929;SDS011;10127;47.780;9.606;2023-04-16T08:07:27;2.10;;;1.07;;
19929;SDS011;10127;47.780;9.606;2023-04-16T08:09:53;2.13;;;1.07;;
19929;SDS011;10127;47.780;9.606;2023-04-16T08:12:19;1.08;;;0.90;;
19929;SDS011;10127;47.780;9.606;2023-04-16T08:14:45;1.20;;;1.00;;
19929;SDS011;10127;47.780;9.606;2023-04-16T08:17:11;1.70;;;1.10;;
19929;SDS011;10127;47.780;9.606;2023-04-16T08:19:37;2.53;;;1.03;;
19929;SDS011;10127;47.780;9.606;2023-04-16T08:22:02;1.63;;;1.17;;
19929;SDS011;10127;47.780;9.606;2023-04-16T08:24:28;1.73;;;1.30;;
19929;SDS011;10127;47.780;9.606;2023-04-16T08:26:54;1.90;;;1.67;;
19929;SDS011;10127;47.780;9.606;2023-04-16T08:29:20;2.03;;;1.70;;
19929;SDS011;10127;47.780;9.606;2023-04-16T08:31:45;1.75;;;1.50;;
19929;SDS011;10127;47.780;9.606;2023-04-16T08:34:11;1.95;;;1.52;;
19929;SDS011;10127;47.780;9.606;2023-04-16T08:36:37;1.42;;;1.33;;
19929;SDS011;10127;47.780;9.606;2023-04-16T08:39:03;2.05;;;1.33;;
19929;SDS011;10127;47.780;9.606;2023-04-16T08:41:30;1.65;;;1.15;;
19929;SDS011;10127;47.780;9.606;2023-04-16T08:43:56;1.48;;;1.10;;
19929;SDS011;10127;47.780;9.606;2023-04-16T08:46:24;1.80;;;1.20;;
19929;SDS011;10127;47.780;9.606;2023-04-16T08:48:52;2.40;;;1.50;;
19929;SDS011;10127;47.780;9.606;2023-04-16T08:51:22;6.55;;;1.55;;
19929;SDS011;10127;47.780;9.606;2023-04-16T08:53:50;3.67;;;1.80;;
19929;SDS011;10127;47.780;9.606;2023-04-16T08:56:18;1.83;;;1.50;;
19929;SDS011;10127;47.780;9.606;2023-04-16T08:58:46;1.80;;;1.58;;
19929;SDS011;10127;47.780;9.606;2023-04-16T09:01:14;1.48;;;1.27;;
19929;SDS011;10127;47.780;9.606;2023-04-16T09:03:41;1.40;;;1.20;;
19929;SDS011;10127;47.780;9.606;2023-04-16T09:06:10;1.35;;;1.23;;
19929;SDS011;10127;47.780;9.606;2023-04-16T09:08:36;1.30;;;1.20;;
19929;SDS011;10127;47.780;9.606;2023-04-16T09:11:02;3.05;;;1.40;;
19929;SDS011;10127;47.780;9.606;2023-04-16T09:13:29;1.00;;;1.00;;
19929;SDS011;10127;47.780;9.606;2023-04-16T09:15:55;1.23;;;1.10;;
19929;SDS011;10127;47.780;9.606;2023-04-16T09:18:21;1.08;;;0.98;;
19929;SDS011;10127;47.780;9.606;2023-04-16T09:20:48;1.10;;;1.00;;
19929;SDS011;10127;47.780;9.606;2023-04-16T09:23:15;0.73;;;0.70;;
19929;SDS011;10127;47.780;9.606;2023-04-16T09:25:41;2.83;;;1.20;;
19929;SDS011;10127;47.780;9.606;2023-04-16T09:28:07;1.38;;;0.70;;
19929;SDS011;10127;47.780;9.606;2023-04-16T09:30:33;0.87;;;0.80;;
19929;SDS011;10127;47.780;9.606;2023-04-16T09:33:17;0.70;;;0.70;;
19929;SDS011;10127;47.780;9.606;2023-04-16T09:35:50;0.50;;;0.50;;
19929;SDS011;10127;47.780;9.606;2023-04-16T09:38:17;0.80;;;0.60;;
19929;SDS011;10127;47.780;9.606;2023-04-16T09:40:44;0.93;;;0.68;;
19929;SDS011;10127;47.780;9.606;2023-04-16T09:43:12;1.33;;;0.77;;
19929;SDS011;10127;47.780;9.606;2023-04-16T09:45:52;0.95;;;0.57;;
19929;SDS011;10127;47.780;9.606;2023-04-16T09:48:31;1.02;;;0.70;;
19929;SDS011;10127;47.780;9.606;2023-04-16T09:50:58;1.23;;;1.00;;
19929;SDS011;10127;47.780;9.606;2023-04-16T09:53:25;1.00;;;0.80;;
19929;SDS011;10127;47.780;9.606;2023-04-16T09:55:55;1.17;;;0.93;;
19929;SDS011;10127;47.780;9.606;2023-04-16T09:58:24;0.63;;;0.63;;
19929;SDS011;10127;47.780;9.606;2023-04-16T10:01:11;0.70;;;0.70;;
19929;SDS011;10127;47.780;9.606;2023-04-16T10:03:37;1.95;;;1.02;;
19929;SDS011;10127;47.780;9.606;2023-04-16T10:06:14;2.53;;;0.80;;
19929;SDS011;10127;47.780;9.606;2023-04-16T10:08:51;0.60;;;0.60;;
19929;SDS011;10127;47.780;9.606;2023-04-16T10:11:20;1.27;;;0.70;;
19929;SDS011;10127;47.780;9.606;2023-04-16T10:13:46;1.10;;;0.88;;
19929;SDS011;10127;47.780;9.606;2023-04-16T10:16:12;1.15;;;0.80;;
19929;SDS011;10127;47.780;9.606;2023-04-16T10:18:41;3.08;;;0.60;;
19929;SDS011;10127;47.780;9.606;2023-04-16T10:21:08;0.95;;;0.80;;
19929;SDS011;10127;47.780;9.606;2023-04-16T10:23:39;1.08;;;0.77;;
19929;SDS011;10127;47.780;9.606;2023-04-16T10:26:06;1.05;;;0.80;;
19929;SDS011;10127;47.780;9.606;2023-04-16T10:28:32;0.70;;;0.70;;
19929;SDS011;10127;47.780;9.606;2023-04-16T10:31:00;0.93;;;0.80;;
19929;SDS011;10127;47.780;9.606;2023-04-16T10:33:28;0.82;;;0.82;;
19929;SDS011;10127;47.780;9.606;2023-04-16T10:38:45;1.55;;;0.88;;
19929;SDS011;10127;47.780;9.606;2023-04-16T10:41:11;2.28;;;0.90;;
19929;SDS011;10127;47.780;9.606;2023-04-16T10:43:38;1.00;;;0.90;;
19929;SDS011;10127;47.780;9.606;2023-04-16T10:46:22;0.75;;;0.73;;
19929;SDS011;10127;47.780;9.606;2023-04-16T10:48:48;0.63;;;0.63;;
19929;SDS011;10127;47.780;9.606;2023-04-16T10:51:23;1.38;;;0.80;;
19929;SDS011;10127;47.780;9.606;2023-04-16T10:54:03;1.55;;;1.08;;
19929;SDS011;10127;47.780;9.606;2023-04-16T10:56:54;1.67;;;1.02;;
19929;SDS011;10127;47.780;9.606;2023-04-16T10:59:22;1.50;;;1.27;;
19929;SDS011;10127;47.780;9.606;2023-04-16T11:01:53;1.85;;;1.05;;
19929;SDS011;10127;47.780;9.606;2023-04-16T11:10:12;1.20;;;0.85;;
19929;SDS011;10127;47.780;9.606;2023-04-16T11:12:19;1.02;;;0.85;;
19929;SDS011;10127;47.780;9.606;2023-04-16T11:14:47;1.30;;;1.00;;
19929;SDS011;10127;47.780;9.606;2023-04-16T11:17:26;1.05;;;0.95;;
19929;SDS011;10127;47.780;9.606;2023-04-16T11:20:04;1.63;;;1.00;;
19929;SDS011;10127;47.780;9.606;2023-04-16T11:22:30;1.13;;;1.02;;
19929;SDS011;10127;47.780;9.606;2023-04-16T11:25:00;2.20;;;1.20;;
19929;SDS011;10127;47.780;9.606;2023-04-16T11:27:26;1.15;;;1.00;;
19929;SDS011;10127;47.780;9.606;2023-04-16T11:30:01;0.85;;;0.77;;
19929;SDS011;10127;47.780;9.606;2023-04-16T11:32:36;0.75;;;0.73;;
19929;SDS011;10127;47.780;9.606;2023-04-16T11:35:03;1.42;;;1.00;;
19929;SDS011;10127;47.780;9.606;2023-04-16T11:37:37;1.10;;;1.00;;
19929;SDS011;10127;47.780;9.606;2023-04-16T11:40:06;1.52;;;1.13;;
19929;SDS011;10127;47.780;9.606;2023-04-16T11:42:33;1.30;;;1.20;;
19929;SDS011;10127;47.780;9.606;2023-04-16T11:45:04;1.92;;;1.33;;
19929;SDS011;10127;47.780;9.606;2023-04-16T11:47:31;3.03;;;0.90;;
19929;SDS011;10127;47.780;9.606;2023-04-16T11:50:16;2.90;;;1.10;;
19929;SDS011;10127;47.780;9.606;2023-04-16T11:52:44;0.82;;;0.80;;
19929;SDS011;10127;47.780;9.606;2023-04-16T11:55:11;1.58;;;1.00;;
19929;SDS011;10127;47.780;9.606;2023-04-16T11:57:36;2.10;;;1.90;;
19929;SDS011;10127;47.780;9.606;2023-04-16T12:00:02;1.55;;;1.25;;
19929;SDS011;10127;47.780;9.606;2023-04-16T12:02:36;1.35;;;1.00;;
19929;SDS011;10127;47.780;9.606;2023-04-16T12:05:24;1.65;;;1.27;;
19929;SDS011;10127;47.780;9.606;2023-04-16T12:07:55;1.63;;;1.10;;
19929;SDS011;10127;47.780;9.606;2023-04-16T12:10:22;1.52;;;1.10;;
19929;SDS011;10127;47.780;9.606;2023-04-16T12:12:48;3.53;;;1.45;;
19929;SDS011;10127;47.780;9.606;2023-04-16T12:15:13;1.33;;;1.10;;
19929;SDS011;10127;47.780;9.606;2023-04-16T12:17:39;1.40;;;1.30;;
19929;SDS011;10127;47.780;9.606;2023-04-16T12:20:14;1.58;;;1.30;;
19929;SDS011;10127;47.780;9.606;2023-04-16T12:22:48;2.05;;;1.20;;
19929;SDS011;10127;47.780;9.606;2023-04-16T12:25:16;1.77;;;1.30;;
19929;SDS011;10127;47.780;9.606;2023-04-16T12:27:45;1.98;;;1.55;;
19929;SDS011;10127;47.780;9.606;2023-04-16T12:30:18;2.17;;;1.30;;
19929;SDS011;10127;47.780;9.606;2023-04-16T12:32:47;3.28;;;1.33;;
19929;SDS011;10127;47.780;9.606;2023-04-16T12:35:27;2.10;;;1.60;;
19929;SDS011;10127;47.780;9.606;2023-04-16T12:37:55;1.90;;;1.70;;
19929;SDS011;10127;47.780;9.606;2023-04-16T12:40:21;3.38;;;1.67;;
19929;SDS011;10127;47.780;9.606;2023-04-16T12:42:46;2.58;;;1.83;;
19929;SDS011;10127;47.780;9.606;2023-04-16T12:45:12;2.20;;;1.75;;
19929;SDS011;10127;47.780;9.606;2023-04-16T12:47:37;1.42;;;1.33;;
19929;SDS011;10127;47.780;9.606;2023-04-16T12:50:03;2.03;;;1.30;;
19929;SDS011;10127;47.780;9.606;2023-04-16T12:52:29;2.05;;;1.35;;
19929;SDS011;10127;47.780;9.606;2023-04-16T12:54:55;1.75;;;1.30;;
19929;SDS011;10127;47.780;9.606;2023-04-16T12:57:21;1.80;;;1.33;;
19929;SDS011;10127;47.780;9.606;2023-04-16T12:59:52;1.85;;;1.40;;
19929;SDS011;10127;47.780;9.606;2023-04-16T13:02:21;1.70;;;1.20;;
19929;SDS011;10127;47.780;9.606;2023-04-16T13:04:47;2.63;;;1.52;;
19929;SDS011;10127;47.780;9.606;2023-04-16T13:07:14;2.15;;;1.40;;
19929;SDS011;10127;47.780;9.606;2023-04-16T13:09:40;2.40;;;1.48;;
19929;SDS011;10127;47.780;9.606;2023-04-16T13:12:06;1.60;;;1.38;;
19929;SDS011;10127;47.780;9.606;2023-04-16T13:14:32;2.90;;;1.80;;
19929;SDS011;10127;47.780;9.606;2023-04-16T13:16:57;1.52;;;1.38;;
19929;SDS011;10127;47.780;9.606;2023-04-16T13:19:23;2.13;;;1.75;;
19929;SDS011;10127;47.780;9.606;2023-04-16T13:21:49;3.92;;;2.10;;
19929;SDS011;10127;47.780;9.606;2023-04-16T13:24:14;4.47;;;3.00;;
19929;SDS011;10127;47.780;9.606;2023-04-16T13:26:40;2.92;;;1.77;;
19929;SDS011;10127;47.780;9.606;2023-04-16T13:29:06;2.15;;;1.85;;
19929;SDS011;10127;47.780;9.606;2023-04-16T13:31:32;1.95;;;1.55;;
19929;SDS011;10127;47.780;9.606;2023-04-16T13:33:57;2.15;;;1.58;;
19929;SDS011;10127;47.780;9.606;2023-04-16T13:36:23;4.13;;;1.92;;
19929;SDS011;10127;47.780;9.606;2023-04-16T13:38:49;2.65;;;2.00;;
19929;SDS011;10127;47.780;9.606;2023-04-16T13:41:15;2.42;;;2.10;;
19929;SDS011;10127;47.780;9.606;2023-04-16T13:43:40;4.85;;;2.10;;
19929;SDS011;10127;47.780;9.606;2023-04-16T13:46:06;2.30;;;1.90;;
19929;SDS011;10127;47.780;9.606;2023-04-16T13:48:31;3.47;;;2.10;;
19929;SDS011;10127;47.780;9.606;2023-04-16T13:50:57;2.70;;;2.38;;
19929;SDS011;10127;47.780;9.606;2023-04-16T13:53:23;4.53;;;2.85;;
19929;SDS011;10127;47.780;9.606;2023-04-16T13:55:48;2.83;;;2.05;;
19929;SDS011;10127;47.780;9.606;2023-04-16T13:58:14;4.32;;;2.75;;
19929;SDS011;10127;47.780;9.606;2023-04-16T14:00:40;4.13;;;2.63;;
19929;SDS011;10127;47.780;9.606;2023-04-16T14:03:06;3.38;;;2.70;;
19929;SDS011;10127;47.780;9.606;2023-04-16T14:05:32;3.90;;;2.80;;
19929;SDS011;10127;47.780;9.606;2023-04-16T14:07:58;4.55;;;2.70;;
19929;SDS011;10127;47.780;9.606;2023-04-16T14:10:23;4.35;;;3.15;;
19929;SDS011;10127;47.780;9.606;2023-04-16T14:12:49;4.10;;;2.65;;
19929;SDS011;10127;47.780;9.606;2023-04-16T14:15:15;3.85;;;3.03;;
19929;SDS011;10127;47.780;9.606;2023-04-16T14:17:41;4.68;;;2.70;;
19929;SDS011;10127;47.780;9.606;2023-04-16T14:20:08;4.28;;;3.00;;
19929;SDS011;10127;47.780;9.606;2023-04-16T14:22:34;4.82;;;3.63;;
19929;SDS011;10127;47.780;9.606;2023-04-16T14:25:00;6.22;;;3.58;;
19929;SDS011;10127;47.780;9.606;2023-04-16T14:27:26;4.82;;;3.55;;
19929;SDS011;10127;47.780;9.606;2023-04-16T14:29:52;4.07;;;3.22;;
19929;SDS011;10127;47.780;9.606;2023-04-16T14:32:18;3.75;;;3.35;;
19929;SDS011;10127;47.780;9.606;2023-04-16T14:34:44;4.88;;;3.35;;
19929;SDS011;10127;47.780;9.606;2023-04-16T14:37:09;6.47;;;4.18;;
19929;SDS011;10127;47.780;9.606;2023-04-16T14:39:35;11.63;;;4.40;;
19929;SDS011;10127;47.780;9.606;2023-04-16T14:42:03;6.72;;;4.35;;
19929;SDS011;10127;47.780;9.606;2023-04-16T14:44:29;5.07;;;4.05;;
19929;SDS011;10127;47.780;9.606;2023-04-16T14:46:55;5.43;;;3.60;;
19929;SDS011;10127;47.780;9.606;2023-04-16T14:49:20;6.78;;;4.50;;
19929;SDS011;10127;47.780;9.606;2023-04-16T14:51:46;6.22;;;4.40;;
19929;SDS011;10127;47.780;9.606;2023-04-16T14:54:11;7.40;;;4.55;;
19929;SDS011;10127;47.780;9.606;2023-04-16T14:56:37;15.13;;;9.98;;
19929;SDS011;10127;47.780;9.606;2023-04-16T14:59:02;6.25;;;4.63;;
19929;SDS011;10127;47.780;9.606;2023-04-16T15:01:28;7.47;;;4.65;;
19929;SDS011;10127;47.780;9.606;2023-04-16T15:03:54;8.93;;;5.03;;
19929;SDS011;10127;47.780;9.606;2023-04-16T15:06:20;6.43;;;4.28;;
19929;SDS011;10127;47.780;9.606;2023-04-16T15:08:46;6.55;;;4.20;;
19929;SDS011;10127;47.780;9.606;2023-04-16T15:11:11;4.97;;;4.30;;
19929;SDS011;10127;47.780;9.606;2023-04-16T15:13:37;6.85;;;4.88;;
19929;SDS011;10127;47.780;9.606;2023-04-16T15:16:03;6.47;;;4.38;;